Pagrindinis puslapis
METAR-TAF:

METAR-TAF

Oro uostai :

Calhoun County Airport

Port Lavaca, Teksasas, Jungtinės Amerikos Valstijos

platuma: 28-39-14N, ilguma: 096-40-52W, Aukštis: 9 m

Dabartinis oras

Ataskaita buvo paskelbta 34 minutes, ne 06:15 UTC
Ramus vėjas
Temperatūra 23°C
Drėgmė 94%
Slėgis 1013 hPa
Matomumas: 16.1 km
Giedras dangus

METAR: KPKV 270615Z AUTO 00000KT 10SM CLR 23/22 A2992 RMK AO2 T02290216

Laikas: 01:49 (06:49 UTC)


TAF: trūkstamas

Orai ataskaitas ir orų prognozės (METAR, TAF).

turimą stotys yra geltonos ir raudonos taškus žemėlapyje.

Perkelti pele per norėdami pamatyti stoties vardą.

Tada spustelėkite, norėdami matyti oro stebėjimo ir prognozės.

Norėdami pakeisti žemėlapį: spustelėkite ant žalios mygtukų su juodo kryžiaus žemyn,; žalią mygtuką su brūkšneliu, jei norite nutolinti; arba žalių rodyklių gretimoms žemėlapius.


METAR-TAF: